createdAt,value
2019-02-20T00:03:51.046Z,21.87
2019-02-20T00:06:40.015Z,23.20
2019-02-20T00:09:29.534Z,19.40
2019-02-20T00:12:18.704Z,23.80
2019-02-20T00:15:07.635Z,22.27
2019-02-20T00:17:56.899Z,19.63
2019-02-20T00:20:26.697Z,18.80
2019-02-20T00:23:15.877Z,19.63
2019-02-20T00:26:04.877Z,18.60
2019-02-20T00:28:54.182Z,19.17
2019-02-20T00:31:36.253Z,20.47
2019-02-20T00:34:17.651Z,20.10
2019-02-20T00:36:47.797Z,20.77
2019-02-20T00:39:36.798Z,21.97
2019-02-20T00:42:26.222Z,20.27
2019-02-20T00:45:34.236Z,22.43
2019-02-20T00:48:42.532Z,20.73
2019-02-20T00:51:50.917Z,23.17
2019-02-20T00:54:21.264Z,20.83
2019-02-20T00:57:10.519Z,19.97
2019-02-20T00:59:59.537Z,22.63
2019-02-20T01:02:48.491Z,25.33
2019-02-20T01:05:37.438Z,33.07
2019-02-20T01:08:26.636Z,26.30
2019-02-20T01:11:15.677Z,27.53
2019-02-20T01:14:04.669Z,27.67
2019-02-20T01:16:53.719Z,29.10
2019-02-20T01:19:42.731Z,31.10
2019-02-20T01:22:31.671Z,26.97
2019-02-20T01:25:39.990Z,43.70
2019-02-20T01:28:31.455Z,44.83
2019-02-20T01:31:13.730Z,32.83
2019-02-20T01:33:55.637Z,39.27
2019-02-20T01:36:37.704Z,37.20
2019-02-20T01:39:19.170Z,35.67
2019-02-20T01:42:01.673Z,33.13
2019-02-20T01:44:43.742Z,41.67
2019-02-20T01:47:25.162Z,23.93
2019-02-20T01:53:38.939Z,19.90
2019-02-20T01:56:08.810Z,22.20
2019-02-20T01:58:39.320Z,15.03
2019-02-20T02:01:28.637Z,17.37
2019-02-20T02:04:17.545Z,23.63
2019-02-20T02:07:06.838Z,24.93
2019-02-20T02:09:56.128Z,21.33
2019-02-20T02:12:45.066Z,27.03
2019-02-20T02:15:34.083Z,24.10
2019-02-20T02:18:03.810Z,25.23
2019-02-20T02:20:53.026Z,26.73
2019-02-20T02:23:24.795Z,26.03
2019-02-20T02:26:13.800Z,27.87
2019-02-20T02:29:02.722Z,23.70
2019-02-20T02:31:51.778Z,27.53
2019-02-20T02:34:33.871Z,23.67
2019-02-20T02:37:15.679Z,27.30
2019-02-20T02:39:57.768Z,23.57
2019-02-20T02:45:29.345Z,22.67
2019-02-20T02:48:18.314Z,23.43
2019-02-20T02:51:00.689Z,25.00
2019-02-20T02:53:42.559Z,23.30
2019-02-20T02:56:24.369Z,21.73
2019-02-20T02:59:06.307Z,24.27
2019-02-20T03:01:48.845Z,27.10
2019-02-20T03:04:18.793Z,22.27
2019-02-20T03:06:48.846Z,23.67
2019-02-20T03:09:37.891Z,24.60
2019-02-20T03:12:26.899Z,21.97
2019-02-20T03:14:57.102Z,22.00
2019-02-20T03:17:46.519Z,20.53
2019-02-20T03:20:27.928Z,23.43
2019-02-20T03:23:12.506Z,16.90
2019-02-20T03:25:54.635Z,22.33
2019-02-20T03:28:36.355Z,25.33
2019-02-20T03:31:06.791Z,23.40
2019-02-20T03:33:55.747Z,23.57
2019-02-20T03:36:44.748Z,21.37
2019-02-20T03:39:33.822Z,23.83
2019-02-20T03:42:23.156Z,23.97
2019-02-20T03:48:25.888Z,24.10
2019-02-20T03:51:14.967Z,23.93
2019-02-20T03:53:51.580Z,22.67
2019-02-20T03:56:35.322Z,23.77
2019-02-20T04:02:38.327Z,23.47
2019-02-20T04:05:27.547Z,24.90
2019-02-20T04:15:08.861Z,23.63
2019-02-20T04:17:38.631Z,19.33
2019-02-20T04:20:08.531Z,19.83
2019-02-20T04:22:50.676Z,20.00
2019-02-20T04:28:15.127Z,22.37
2019-02-20T04:30:56.688Z,21.97
2019-02-20T04:33:26.549Z,23.03
2019-02-20T04:36:15.681Z,21.77
2019-02-20T04:41:53.732Z,21.50
2019-02-20T04:44:23.464Z,23.43
2019-02-20T04:47:05.893Z,21.87
2019-02-20T04:49:47.651Z,23.67
2019-02-20T04:52:29.702Z,22.90
2019-02-20T04:55:11.823Z,22.13
2019-02-20T04:57:41.877Z,25.50
2019-02-20T05:00:31.095Z,22.07
2019-02-20T05:03:22.518Z,24.47
2019-02-20T05:09:39.757Z,21.53
2019-02-20T05:12:28.975Z,23.43
2019-02-20T05:15:18.095Z,26.63
2019-02-20T05:17:48.960Z,23.93
2019-02-20T05:20:18.722Z,23.87
2019-02-20T05:23:07.868Z,22.17
2019-02-20T05:32:25.935Z,20.50
2019-02-20T05:35:14.865Z,24.60
2019-02-20T05:38:03.985Z,23.27
2019-02-20T05:40:52.921Z,20.93
2019-02-20T05:43:34.174Z,23.43
2019-02-20T05:46:16.329Z,25.13
2019-02-20T05:48:57.631Z,28.97
2019-02-20T05:51:39.939Z,22.33
2019-02-20T05:54:21.790Z,22.87
2019-02-20T05:57:03.015Z,25.23
2019-02-20T05:59:45.114Z,21.57
2019-02-20T06:02:26.730Z,22.17
2019-02-20T06:04:56.787Z,22.90
2019-02-20T06:07:45.731Z,23.30
2019-02-20T06:10:34.683Z,21.90
2019-02-20T06:13:05.066Z,22.50
2019-02-20T06:15:54.011Z,24.77
2019-02-20T06:21:31.853Z,26.13
2019-02-20T06:24:01.530Z,22.30
2019-02-20T06:26:31.412Z,26.77
2019-02-20T06:32:14.954Z,34.40
2019-02-20T06:35:04.047Z,22.67
2019-02-20T06:41:01.674Z,54.07
2019-02-20T06:43:50.873Z,142.33
2019-02-20T06:49:28.653Z,26.97
2019-02-20T06:52:17.671Z,27.67
2019-02-20T06:57:36.254Z,23.80
2019-02-20T07:00:25.609Z,23.60
2019-02-20T07:02:55.994Z,23.27
2019-02-20T07:05:36.797Z,23.93
2019-02-20T07:08:44.923Z,23.23
2019-02-20T07:11:53.317Z,23.17
2019-02-20T07:15:01.876Z,23.77
2019-02-20T07:18:09.973Z,26.87
2019-02-20T07:21:18.310Z,24.43
2019-02-20T07:24:26.441Z,26.00
2019-02-20T07:27:07.750Z,23.77
2019-02-20T07:29:50.167Z,27.07
2019-02-20T07:32:32.195Z,27.90
2019-02-20T07:35:14.006Z,28.83
2019-02-20T07:37:56.387Z,26.93
2019-02-20T07:40:38.471Z,28.33
2019-02-20T07:43:20.636Z,33.27
2019-02-20T07:46:02.949Z,27.00
2019-02-20T07:48:44.735Z,27.43
2019-02-20T07:51:26.364Z,26.80
2019-02-20T07:54:07.678Z,32.40
2019-02-20T07:56:50.027Z,31.97
2019-02-20T07:59:32.572Z,27.23
2019-02-20T08:02:14.611Z,28.70
2019-02-20T08:04:56.721Z,23.93
2019-02-20T08:07:26.527Z,27.93
2019-02-20T08:10:34.664Z,27.70
2019-02-20T08:13:04.699Z,25.97
2019-02-20T08:15:53.166Z,26.87
2019-02-20T08:18:42.280Z,28.80
2019-02-20T08:21:31.297Z,30.90
2019-02-20T08:24:20.691Z,26.83
2019-02-20T08:29:32.787Z,28.73
2019-02-20T08:32:02.843Z,26.60
2019-02-20T08:34:51.840Z,24.53
2019-02-20T08:37:41.432Z,27.13
2019-02-20T08:43:06.653Z,28.07
2019-02-20T08:48:18.982Z,25.40
2019-02-20T08:51:08.194Z,21.43
2019-02-20T08:53:41.218Z,27.33
2019-02-20T08:56:10.975Z,23.23
2019-02-20T08:58:41.086Z,26.50
2019-02-20T09:01:10.924Z,25.00
2019-02-20T09:03:41.102Z,19.30
2019-02-20T09:09:38.034Z,19.20
2019-02-20T09:12:26.983Z,21.23
2019-02-20T09:14:56.854Z,21.87
2019-02-20T09:17:45.870Z,23.60
2019-02-20T09:20:35.383Z,23.93
2019-02-20T09:23:24.332Z,20.30
2019-02-20T09:26:32.734Z,19.97
2019-02-20T09:29:21.666Z,22.30
2019-02-20T09:32:10.598Z,24.03
2019-02-20T09:34:59.510Z,28.30
2019-02-20T09:40:54.818Z,21.77
2019-02-20T09:43:36.963Z,21.47
2019-02-20T09:46:19.055Z,25.67
2019-02-20T09:49:01.714Z,22.13
2019-02-20T09:51:43.216Z,25.37
2019-02-20T09:54:25.287Z,26.90
2019-02-20T09:57:06.548Z,21.60
2019-02-20T09:59:48.728Z,19.87
2019-02-20T10:02:30.417Z,22.40
2019-02-20T10:05:12.419Z,22.50
2019-02-20T10:07:54.245Z,23.17
2019-02-20T10:10:36.599Z,21.60
2019-02-20T10:19:51.179Z,22.57
2019-02-20T10:22:40.367Z,26.33
2019-02-20T10:25:29.305Z,11.27
2019-02-20T10:27:59.391Z,8.90
2019-02-20T10:30:48.763Z,8.53
2019-02-20T10:36:26.862Z,19.37
2019-02-20T10:38:56.916Z,10.97
2019-02-20T10:41:45.856Z,16.73
2019-02-20T10:44:35.310Z,16.20
2019-02-20T10:47:24.396Z,11.90
2019-02-20T10:53:02.309Z,17.67
2019-02-20T10:55:32.422Z,14.33
2019-02-20T11:04:43.308Z,12.40
2019-02-20T11:07:32.227Z,9.87
2019-02-20T11:10:21.241Z,12.13
2019-02-20T11:13:10.268Z,11.70
2019-02-20T11:15:59.492Z,11.97
2019-02-20T11:18:48.444Z,15.30
2019-02-20T11:21:37.364Z,14.33
2019-02-20T11:27:39.774Z,10.90
2019-02-20T11:30:28.781Z,13.27
2019-02-20T11:33:18.296Z,10.80
2019-02-20T11:36:07.308Z,9.13
2019-02-20T11:38:56.526Z,9.63
2019-02-20T11:44:53.978Z,9.73
2019-02-20T11:47:23.748Z,9.30
2019-02-20T11:49:53.955Z,6.17
2019-02-20T11:52:23.694Z,7.53
2019-02-20T11:57:47.973Z,7.73
2019-02-20T12:00:30.071Z,10.37
2019-02-20T12:03:12.118Z,9.23
2019-02-20T12:05:54.549Z,14.63
2019-02-20T12:08:37.090Z,13.87
2019-02-20T12:11:18.827Z,11.83
2019-02-20T12:14:02.311Z,9.40
2019-02-20T12:20:02.506Z,11.50
2019-02-20T12:22:44.533Z,11.03
2019-02-20T12:25:26.100Z,10.00
2019-02-20T12:28:08.042Z,10.30
2019-02-20T12:30:50.703Z,11.73
2019-02-20T12:33:20.582Z,9.20
2019-02-20T12:39:23.874Z,8.67
2019-02-20T12:45:26.972Z,11.70
2019-02-20T12:47:56.668Z,9.37
2019-02-20T12:50:45.705Z,10.73
2019-02-20T12:56:11.155Z,8.40
2019-02-20T12:58:53.375Z,10.93
2019-02-20T13:01:35.095Z,9.63
2019-02-20T13:04:17.542Z,11.70
2019-02-20T13:06:59.795Z,9.47
2019-02-20T13:09:41.936Z,9.37
2019-02-20T13:12:23.800Z,10.50
2019-02-20T13:15:05.294Z,9.67
2019-02-20T13:17:47.293Z,9.37
2019-02-20T13:20:29.484Z,12.90
2019-02-20T13:22:59.262Z,9.07
2019-02-20T13:25:29.034Z,8.37
2019-02-20T13:28:18.311Z,8.33
2019-02-20T13:31:07.351Z,8.47
2019-02-20T13:33:56.398Z,9.47
2019-02-20T13:36:45.380Z,8.60
2019-02-20T13:39:34.350Z,9.47
2019-02-20T13:45:37.290Z,8.47
2019-02-20T13:48:40.394Z,7.97
2019-02-20T13:51:10.500Z,9.83
2019-02-20T13:57:13.983Z,8.40
2019-02-20T14:00:03.054Z,9.97
2019-02-20T14:02:52.558Z,8.73
2019-02-20T14:06:02.703Z,8.80
2019-02-20T14:11:59.671Z,11.13
2019-02-20T14:14:48.946Z,9.90
2019-02-20T14:17:38.126Z,7.10
2019-02-20T14:20:27.253Z,10.30
2019-02-20T14:26:16.854Z,8.10
2019-02-20T14:28:58.153Z,8.93
2019-02-20T14:31:28.175Z,7.90
2019-02-20T14:34:17.426Z,12.33
2019-02-20T14:37:06.422Z,11.67
2019-02-20T14:39:55.673Z,11.10
2019-02-20T14:45:52.854Z,8.77
2019-02-20T14:48:41.816Z,7.63
2019-02-20T14:54:44.282Z,13.63
2019-02-20T14:57:35.229Z,8.50
2019-02-20T15:03:20.859Z,9.13
2019-02-20T15:06:10.603Z,8.23
2019-02-20T15:08:59.826Z,10.27
2019-02-20T15:11:48.815Z,9.87
2019-02-20T15:17:44.922Z,13.43
2019-02-20T15:20:27.938Z,14.37
2019-02-20T15:23:09.374Z,10.77
2019-02-20T15:25:50.978Z,10.20
2019-02-20T15:28:21.420Z,9.30
2019-02-20T15:30:51.343Z,11.07
2019-02-20T15:33:21.277Z,12.80
2019-02-20T15:35:51.565Z,11.07
2019-02-20T15:38:21.431Z,12.30
2019-02-20T15:41:10.429Z,11.30
2019-02-20T15:47:07.588Z,11.17
2019-02-20T15:53:04.781Z,10.53
2019-02-20T15:55:54.051Z,14.73
2019-02-20T15:58:24.419Z,14.77
2019-02-20T16:01:13.447Z,13.43
2019-02-20T16:06:57.001Z,16.70
2019-02-20T16:09:26.762Z,10.37
2019-02-20T16:12:15.761Z,15.33
2019-02-20T16:15:05.163Z,12.40
2019-02-20T16:17:47.362Z,12.97
2019-02-20T16:20:29.347Z,25.30
2019-02-20T16:23:11.075Z,23.60
2019-02-20T16:25:52.568Z,20.20
2019-02-20T16:28:34.290Z,14.80
2019-02-20T16:31:15.814Z,12.83
2019-02-20T16:33:57.108Z,21.87
2019-02-20T16:36:38.399Z,13.70
2019-02-20T16:42:03.443Z,11.77
2019-02-20T16:44:45.785Z,11.87
2019-02-20T16:47:27.935Z,15.80
2019-02-20T16:50:09.454Z,18.53
2019-02-20T16:52:51.407Z,23.37
2019-02-20T16:55:32.955Z,25.27
2019-02-20T16:58:14.856Z,15.80
2019-02-20T17:00:56.423Z,12.63
2019-02-20T17:03:38.641Z,14.47
2019-02-20T17:06:20.061Z,18.20
2019-02-20T17:09:02.211Z,17.47
2019-02-20T17:11:44.070Z,23.87
2019-02-20T17:14:26.075Z,24.03
2019-02-20T17:17:07.676Z,20.43
2019-02-20T17:19:49.295Z,15.77
2019-02-20T17:22:30.918Z,19.40
2019-02-20T17:25:13.169Z,18.03
2019-02-20T17:27:54.869Z,24.97
2019-02-20T17:30:36.697Z,34.00
2019-02-20T17:33:07.054Z,34.03
2019-02-20T17:36:15.092Z,25.40
2019-02-20T17:38:45.026Z,20.90
2019-02-20T17:41:34.203Z,19.30
2019-02-20T17:44:23.263Z,18.77
2019-02-20T17:47:12.899Z,18.43
2019-02-20T17:49:55.222Z,17.17
2019-02-20T17:52:37.083Z,17.83
2019-02-20T17:55:18.400Z,15.30
2019-02-20T18:00:43.067Z,16.97
2019-02-20T18:03:24.295Z,18.33
2019-02-20T18:06:06.195Z,25.50
2019-02-20T18:11:33.343Z,26.60
2019-02-20T18:14:14.606Z,23.97
2019-02-20T18:16:56.660Z,30.20
2019-02-20T18:19:38.362Z,21.17
2019-02-20T18:22:19.739Z,28.80
2019-02-20T18:27:46.999Z,31.27
2019-02-20T18:30:17.253Z,24.80
2019-02-20T18:33:06.626Z,49.03
2019-02-20T18:36:14.871Z,58.07
2019-02-20T18:39:05.540Z,23.60
2019-02-20T18:41:54.825Z,24.87
2019-02-20T18:47:57.674Z,31.60
2019-02-20T18:50:39.914Z,32.60
2019-02-20T18:53:21.315Z,36.97
2019-02-20T18:56:03.712Z,36.57
2019-02-20T18:58:45.309Z,29.47
2019-02-20T19:01:27.609Z,26.63
2019-02-20T19:04:09.349Z,36.53
2019-02-20T19:06:50.891Z,36.77
2019-02-20T19:09:33.380Z,34.47
2019-02-20T19:12:15.351Z,33.67
2019-02-20T19:14:57.567Z,34.70
2019-02-20T19:17:39.598Z,30.77
2019-02-20T19:20:41.547Z,32.63
2019-02-20T19:24:10.226Z,38.57
2019-02-20T19:27:03.333Z,45.03
2019-02-20T19:30:11.559Z,37.37
2019-02-20T19:33:19.721Z,35.53
2019-02-20T19:36:27.989Z,31.23
2019-02-20T19:39:36.479Z,24.97
2019-02-20T19:42:39.411Z,23.90
2019-02-20T19:48:58.678Z,21.30
2019-02-20T19:51:52.315Z,21.70
2019-02-20T19:58:21.280Z,26.77
2019-02-20T20:01:29.614Z,16.10
2019-02-20T20:04:37.822Z,15.77
2019-02-20T20:07:45.973Z,20.03
2019-02-20T20:10:54.383Z,20.87
2019-02-20T20:14:02.674Z,54.67
2019-02-20T20:17:14.303Z,28.53
2019-02-20T20:20:26.641Z,31.43
2019-02-20T20:23:34.945Z,22.13
2019-02-20T20:26:32.525Z,20.97
2019-02-20T20:33:16.724Z,24.90
2019-02-20T20:36:25.067Z,26.30
2019-02-20T20:39:33.295Z,41.87
2019-02-20T20:42:41.459Z,41.37
2019-02-20T20:45:49.690Z,31.10
2019-02-20T20:48:31.236Z,27.23
2019-02-20T20:51:39.484Z,24.03
2019-02-20T20:54:47.655Z,23.20
2019-02-20T20:57:41.081Z,22.10
2019-02-20T21:00:49.267Z,20.17
2019-02-20T21:03:40.470Z,25.23
2019-02-20T21:06:48.851Z,25.63
2019-02-20T21:13:37.647Z,25.10
2019-02-20T21:16:46.081Z,22.10
2019-02-20T21:19:54.225Z,24.20
2019-02-20T21:23:02.383Z,23.93
2019-02-20T21:29:10.598Z,28.77
2019-02-20T21:32:18.788Z,28.93
2019-02-20T21:35:27.383Z,30.47
2019-02-20T21:38:21.019Z,25.43
2019-02-20T21:47:31.951Z,26.20
2019-02-20T21:56:30.676Z,34.67
2019-02-20T21:59:38.892Z,41.27
2019-02-20T22:02:28.556Z,32.53
2019-02-20T22:08:12.056Z,22.03
2019-02-20T22:14:09.655Z,20.80
2019-02-20T22:17:02.826Z,19.53
2019-02-20T22:20:11.438Z,21.07
2019-02-20T22:23:19.792Z,19.37
2019-02-20T22:26:28.000Z,16.70
2019-02-20T22:29:36.299Z,15.20
2019-02-20T22:32:44.444Z,16.67
2019-02-20T22:35:52.699Z,13.23
2019-02-20T22:39:01.374Z,14.37
2019-02-20T22:41:58.682Z,12.10
2019-02-20T22:45:07.095Z,16.00
2019-02-20T22:48:15.314Z,13.50
2019-02-20T22:51:23.683Z,12.87
2019-02-20T22:54:05.385Z,14.30
2019-02-20T22:56:47.023Z,13.47
2019-02-20T23:00:02.081Z,14.37
2019-02-20T23:03:05.396Z,15.33
2019-02-20T23:09:22.637Z,15.53
2019-02-20T23:12:30.747Z,15.87
2019-02-20T23:15:19.971Z,17.20
2019-02-20T23:21:04.102Z,17.03
2019-02-20T23:30:16.141Z,14.73
2019-02-20T23:33:05.754Z,16.80
2019-02-20T23:35:55.206Z,15.17
2019-02-20T23:38:44.527Z,12.90
2019-02-20T23:44:47.134Z,17.00
2019-02-20T23:47:17.063Z,12.30
2019-02-20T23:49:59.336Z,13.80
2019-02-20T23:52:29.341Z,14.70
